HLY weather

Parque Toreo III Heliport
Naucalpan, México (state), Mexico

Public forecast

Using degrees Celsius for public forecast. Weather courtesy of forecast.io.

Closest aviation weather report (METAR) to Parque Toreo III Heliport

Closest report is Licenciado Benito Juarez International Airport, 8.3 nm (15.5 km) E. Retrieved 2019/12/16 01:48 UTC (21 minutes ago):

MMMX 160148Z 12014KT 10SM SKC 17/04 A3025 NOSIG

Closest aviation forecast (TAF) to Parque Toreo III Heliport

Closest forecast is Licenciado Benito Juarez International Airport, 8.3 nm (15.5 km) E. Retrieved 2019-12-16 00:54 UTC (1 hour ago):

TAF MMMX 152248Z 1600/1706 10010KT P6SM SKC TX23/1620Z TN08/1612Z BECMG 1606/1607 00000KT TEMPO 1610/1614 2SM BR HZ FM161400 00000KT 4SM HZ SKC FM162000 16010KT P6SM SCT020 BKN250 BECMG 1703/1704 13005KT